createdAt,value
2023-03-31T00:02:15.994Z,11.01
2023-03-31T00:04:52.554Z,11.03
2023-03-31T00:07:22.138Z,11.03
2023-03-31T00:09:49.267Z,11.07
2023-03-31T00:12:16.671Z,11.07
2023-03-31T00:14:44.185Z,11.06
2023-03-31T00:17:11.748Z,11.07
2023-03-31T00:19:40.150Z,11.09
2023-03-31T00:22:07.141Z,11.09
2023-03-31T00:24:34.384Z,11.07
2023-03-31T00:27:01.981Z,11.08
2023-03-31T00:29:28.883Z,11.08
2023-03-31T00:31:56.085Z,11.08
2023-03-31T00:34:22.870Z,11.06
2023-03-31T00:36:49.377Z,11.04
2023-03-31T00:39:18.439Z,11.05
2023-03-31T00:41:45.398Z,11.02
2023-03-31T00:44:24.260Z,11.01
2023-03-31T00:47:14.160Z,11.01
2023-03-31T00:49:49.338Z,10.99
2023-03-31T00:52:23.832Z,10.99
2023-03-31T00:54:58.950Z,10.98
2023-03-31T00:57:28.556Z,10.92
2023-03-31T01:00:01.607Z,10.90
2023-03-31T01:02:28.855Z,10.89
2023-03-31T01:05:02.026Z,10.89
2023-03-31T01:07:42.489Z,10.87
2023-03-31T01:10:10.164Z,10.85
2023-03-31T01:12:47.233Z,10.85
2023-03-31T01:15:14.361Z,10.83
2023-03-31T01:17:44.858Z,10.85
2023-03-31T01:20:25.849Z,10.84
2023-03-31T01:23:16.250Z,10.79
2023-03-31T01:26:13.345Z,10.80
2023-03-31T01:28:57.495Z,10.78
2023-03-31T01:32:05.607Z,10.79
2023-03-31T01:34:57.704Z,10.79
2023-03-31T01:37:48.882Z,10.78
2023-03-31T01:40:39.631Z,10.79
2023-03-31T01:43:23.205Z,10.79
2023-03-31T01:46:18.147Z,10.80
2023-03-31T01:49:11.990Z,10.76
2023-03-31T01:51:49.893Z,10.78
2023-03-31T01:54:32.692Z,10.78
2023-03-31T01:57:05.610Z,10.79
2023-03-31T01:59:43.376Z,10.78
2023-03-31T02:02:20.304Z,10.75
2023-03-31T02:04:52.214Z,10.75
2023-03-31T02:07:24.908Z,10.75
2023-03-31T02:09:58.854Z,10.74
2023-03-31T02:12:28.503Z,10.73
2023-03-31T02:14:58.071Z,10.71
2023-03-31T02:17:32.691Z,10.68
2023-03-31T02:20:09.649Z,10.70
2023-03-31T02:22:40.648Z,10.70
2023-03-31T02:25:11.706Z,10.69
2023-03-31T02:27:51.686Z,10.70
2023-03-31T02:30:18.256Z,10.70
2023-03-31T02:32:46.610Z,10.71
2023-03-31T02:35:21.497Z,10.68
2023-03-31T02:37:49.706Z,10.68
2023-03-31T02:40:20.385Z,10.68
2023-03-31T02:42:47.583Z,10.66
2023-03-31T02:45:53.255Z,10.66
2023-03-31T02:48:25.346Z,10.67
2023-03-31T02:51:32.107Z,10.69
2023-03-31T02:54:01.506Z,10.66
2023-03-31T02:56:58.873Z,10.67
2023-03-31T03:00:09.673Z,10.66
2023-03-31T03:02:57.603Z,10.66
2023-03-31T03:05:49.835Z,10.65
2023-03-31T03:08:35.204Z,10.64
2023-03-31T03:11:26.007Z,10.64
2023-03-31T03:14:34.418Z,10.63
2023-03-31T03:17:15.141Z,10.61
2023-03-31T03:19:42.420Z,10.62
2023-03-31T03:22:09.777Z,10.60
2023-03-31T03:24:36.288Z,10.58
2023-03-31T03:27:02.796Z,10.56
2023-03-31T03:29:29.200Z,10.54
2023-03-31T03:31:56.086Z,10.54
2023-03-31T03:34:22.501Z,10.52
2023-03-31T03:36:48.958Z,10.53
2023-03-31T03:39:15.565Z,10.51
2023-03-31T03:41:42.004Z,10.52
2023-03-31T03:44:08.448Z,10.49
2023-03-31T03:46:34.939Z,10.49
2023-03-31T03:49:01.409Z,10.50
2023-03-31T03:51:27.900Z,10.50
2023-03-31T03:53:54.292Z,10.50
2023-03-31T03:56:22.064Z,10.50
2023-03-31T03:58:48.548Z,10.49
2023-03-31T04:01:15.001Z,10.47
2023-03-31T04:03:41.452Z,10.45
2023-03-31T04:06:08.351Z,10.47
2023-03-31T04:08:35.306Z,10.48
2023-03-31T04:11:01.791Z,10.46
2023-03-31T04:13:28.398Z,10.46
2023-03-31T04:15:54.902Z,10.48
2023-03-31T04:18:24.158Z,10.49
2023-03-31T04:21:03.879Z,10.47
2023-03-31T04:23:34.844Z,10.45
2023-03-31T04:26:02.688Z,10.46
2023-03-31T04:28:34.765Z,10.44
2023-03-31T04:31:02.796Z,10.46
2023-03-31T04:33:29.605Z,10.47
2023-03-31T04:35:56.127Z,10.47
2023-03-31T04:38:24.394Z,10.48
2023-03-31T04:40:52.569Z,10.47
2023-03-31T04:43:21.059Z,10.47
2023-03-31T04:45:47.614Z,10.48
2023-03-31T04:48:14.142Z,10.47
2023-03-31T04:50:40.610Z,10.46
2023-03-31T04:53:07.224Z,10.46
2023-03-31T04:55:34.225Z,10.43
2023-03-31T04:58:00.926Z,10.44
2023-03-31T05:00:28.801Z,10.43
2023-03-31T05:02:55.339Z,10.42
2023-03-31T05:05:22.007Z,10.42
2023-03-31T05:07:48.521Z,10.41
2023-03-31T05:10:14.957Z,10.37
2023-03-31T05:12:41.391Z,10.38
2023-03-31T05:15:08.443Z,10.36
2023-03-31T05:17:36.490Z,10.34
2023-03-31T05:20:06.838Z,10.35
2023-03-31T05:22:38.055Z,10.35
2023-03-31T05:25:06.921Z,10.34
2023-03-31T05:27:34.275Z,10.34
2023-03-31T05:30:00.983Z,10.33
2023-03-31T05:32:27.617Z,10.33
2023-03-31T05:34:57.137Z,10.35
2023-03-31T05:37:25.023Z,10.35
2023-03-31T05:39:55.241Z,10.35
2023-03-31T05:42:21.760Z,10.34
2023-03-31T05:44:48.212Z,10.33
2023-03-31T05:47:15.242Z,10.34
2023-03-31T05:49:41.754Z,10.34
2023-03-31T05:52:11.558Z,10.34
2023-03-31T05:54:38.203Z,10.34
2023-03-31T05:57:04.738Z,10.32
2023-03-31T05:59:31.305Z,10.32
2023-03-31T06:01:58.435Z,10.32
2023-03-31T06:04:25.003Z,10.32
2023-03-31T06:06:51.460Z,10.30
2023-03-31T06:09:18.370Z,10.30
2023-03-31T06:11:44.871Z,10.28
2023-03-31T06:14:11.719Z,10.30
2023-03-31T06:16:38.651Z,10.27
2023-03-31T06:19:05.354Z,10.28
2023-03-31T06:21:31.852Z,10.24
2023-03-31T06:24:00.236Z,10.21
2023-03-31T06:26:27.372Z,10.19
2023-03-31T06:28:54.307Z,10.22
2023-03-31T06:31:23.629Z,10.18
2023-03-31T06:33:50.611Z,10.17
2023-03-31T06:36:19.493Z,10.14
2023-03-31T06:38:46.158Z,10.11
2023-03-31T06:41:14.618Z,10.11
2023-03-31T06:43:41.262Z,10.11
2023-03-31T06:46:08.156Z,10.12
2023-03-31T06:48:34.912Z,10.11
2023-03-31T06:51:03.408Z,10.09
2023-03-31T06:53:30.324Z,10.11
2023-03-31T06:55:57.369Z,10.11
2023-03-31T06:58:25.300Z,10.11
2023-03-31T07:00:52.890Z,10.10
2023-03-31T07:03:22.701Z,10.09
2023-03-31T07:05:50.559Z,10.11
2023-03-31T07:08:17.864Z,10.10
2023-03-31T07:10:47.503Z,10.10
2023-03-31T07:13:17.836Z,10.08
2023-03-31T07:15:47.034Z,10.07
2023-03-31T07:18:15.977Z,10.09
2023-03-31T07:20:43.683Z,10.09
2023-03-31T07:23:11.309Z,10.11
2023-03-31T07:25:38.736Z,10.08
2023-03-31T07:28:07.115Z,10.11
2023-03-31T07:30:34.274Z,10.15
2023-03-31T07:33:01.717Z,10.17
2023-03-31T07:35:28.638Z,10.16
2023-03-31T07:37:58.057Z,10.20
2023-03-31T07:40:27.427Z,10.26
2023-03-31T07:42:54.546Z,10.29
2023-03-31T07:45:23.551Z,10.32
2023-03-31T07:47:50.881Z,10.38
2023-03-31T07:50:18.323Z,10.38
2023-03-31T07:52:47.001Z,10.42
2023-03-31T07:55:14.378Z,10.52
2023-03-31T07:57:41.473Z,10.63
2023-03-31T08:00:10.797Z,10.68
2023-03-31T08:02:37.479Z,10.72
2023-03-31T08:05:06.167Z,10.72
2023-03-31T08:07:37.408Z,10.75
2023-03-31T08:10:06.471Z,10.78
2023-03-31T08:12:32.965Z,10.83
2023-03-31T08:14:59.517Z,10.86
2023-03-31T08:17:26.027Z,10.88
2023-03-31T08:19:52.545Z,10.89
2023-03-31T08:22:19.103Z,10.90
2023-03-31T08:24:47.215Z,10.92
2023-03-31T08:27:13.724Z,10.91
2023-03-31T08:29:40.259Z,10.88
2023-03-31T08:32:10.113Z,10.85
2023-03-31T08:34:38.075Z,10.82
2023-03-31T08:37:05.855Z,10.76
2023-03-31T08:39:34.160Z,10.74
2023-03-31T08:42:05.472Z,10.71
2023-03-31T08:44:41.745Z,10.72
2023-03-31T08:47:15.909Z,10.78
2023-03-31T08:49:48.128Z,10.86
2023-03-31T08:52:25.200Z,10.95
2023-03-31T08:55:02.310Z,10.97
2023-03-31T08:57:36.465Z,11.04
2023-03-31T09:00:07.055Z,11.18
2023-03-31T09:02:55.343Z,11.32
2023-03-31T09:05:52.764Z,11.45
2023-03-31T09:08:41.079Z,11.59
2023-03-31T09:11:27.107Z,11.71
2023-03-31T09:14:22.851Z,11.80
2023-03-31T09:17:25.213Z,11.89
2023-03-31T09:20:25.609Z,11.82
2023-03-31T09:23:16.370Z,11.71
2023-03-31T09:25:44.634Z,11.66
2023-03-31T09:28:19.571Z,11.64
2023-03-31T09:30:49.785Z,11.64
2023-03-31T09:33:33.206Z,11.83
2023-03-31T09:36:01.407Z,12.04
2023-03-31T09:38:29.729Z,12.02
2023-03-31T09:41:01.465Z,12.11
2023-03-31T09:43:35.311Z,12.28
2023-03-31T09:46:09.565Z,12.40
2023-03-31T09:48:38.956Z,12.42
2023-03-31T09:51:14.542Z,12.51
2023-03-31T09:53:48.926Z,12.58
2023-03-31T09:56:44.213Z,12.65
2023-03-31T09:59:17.593Z,12.65
2023-03-31T10:01:46.180Z,12.60
2023-03-31T10:04:23.279Z,12.42
2023-03-31T10:06:52.323Z,12.13
2023-03-31T10:09:23.094Z,11.69
2023-03-31T10:11:55.698Z,11.44
2023-03-31T10:14:32.456Z,11.41
2023-03-31T10:17:05.352Z,11.47
2023-03-31T10:19:34.627Z,11.59
2023-03-31T10:22:16.689Z,11.64
2023-03-31T10:24:45.850Z,11.69
2023-03-31T10:27:26.497Z,11.83
2023-03-31T10:29:55.523Z,11.99
2023-03-31T10:32:24.966Z,12.05
2023-03-31T10:34:51.709Z,12.12
2023-03-31T10:37:22.538Z,12.21
2023-03-31T10:39:57.604Z,12.30
2023-03-31T10:42:25.699Z,12.40
2023-03-31T10:45:12.871Z,12.56
2023-03-31T10:47:55.614Z,12.71
2023-03-31T10:50:29.388Z,12.76
2023-03-31T10:53:13.090Z,12.80
2023-03-31T10:56:01.620Z,12.79
2023-03-31T10:58:31.022Z,12.78
2023-03-31T11:01:14.895Z,12.21
2023-03-31T11:03:50.498Z,11.36
2023-03-31T11:06:59.254Z,10.99
2023-03-31T11:09:35.555Z,10.84
2023-03-31T11:12:17.113Z,10.83
2023-03-31T11:15:09.251Z,10.81
2023-03-31T11:17:47.845Z,10.88
2023-03-31T11:20:32.583Z,10.96
2023-03-31T11:23:33.710Z,11.10
2023-03-31T11:26:07.947Z,11.13
2023-03-31T11:29:06.590Z,11.21
2023-03-31T11:31:59.797Z,11.27
2023-03-31T11:34:56.979Z,11.35
2023-03-31T11:37:42.907Z,11.42
2023-03-31T11:40:17.394Z,11.53
2023-03-31T11:43:03.127Z,11.65
2023-03-31T11:45:34.674Z,11.72
2023-03-31T11:48:10.818Z,11.79
2023-03-31T11:50:41.338Z,11.71
2023-03-31T11:53:16.482Z,11.67
2023-03-31T11:55:46.093Z,11.71
2023-03-31T11:58:22.572Z,11.72
2023-03-31T12:00:57.210Z,11.74
2023-03-31T12:03:43.747Z,11.81
2023-03-31T12:06:18.912Z,11.92
2023-03-31T12:09:16.547Z,12.04
2023-03-31T12:12:07.801Z,12.09
2023-03-31T12:14:42.109Z,12.09
2023-03-31T12:17:19.689Z,12.10
2023-03-31T12:19:51.622Z,12.08
2023-03-31T12:22:29.517Z,12.03
2023-03-31T12:24:56.392Z,12.01
2023-03-31T12:27:35.300Z,11.98
2023-03-31T12:30:10.683Z,11.87
2023-03-31T12:32:48.704Z,11.77
2023-03-31T12:35:27.343Z,11.64
2023-03-31T12:38:05.782Z,11.60
2023-03-31T12:41:12.134Z,11.70
2023-03-31T12:43:55.570Z,11.87
2023-03-31T12:46:37.311Z,11.95
2023-03-31T12:49:41.526Z,12.03
2023-03-31T12:52:18.627Z,12.09
2023-03-31T12:54:59.770Z,12.17
2023-03-31T12:57:27.055Z,12.20
2023-03-31T13:00:08.038Z,12.22
2023-03-31T13:02:34.640Z,12.22
2023-03-31T13:05:39.101Z,12.20
2023-03-31T13:08:08.374Z,12.19
2023-03-31T13:10:58.543Z,12.19
2023-03-31T13:13:26.466Z,12.32
2023-03-31T13:16:00.463Z,12.45
2023-03-31T13:18:28.973Z,12.56
2023-03-31T13:21:00.269Z,12.80
2023-03-31T13:23:28.842Z,12.88
2023-03-31T13:25:56.666Z,12.92
2023-03-31T13:28:23.118Z,13.01
2023-03-31T13:30:51.679Z,13.01
2023-03-31T13:33:42.323Z,13.09
2023-03-31T13:36:17.919Z,13.13
2023-03-31T13:39:16.737Z,13.16
2023-03-31T13:42:16.593Z,13.16
2023-03-31T13:44:42.955Z,13.22
2023-03-31T13:47:56.393Z,13.18
2023-03-31T13:50:41.661Z,13.21
2023-03-31T13:53:23.512Z,13.19
2023-03-31T13:56:00.927Z,13.18
2023-03-31T13:58:46.315Z,13.32
2023-03-31T14:01:32.963Z,13.32
2023-03-31T14:04:11.716Z,13.32
2023-03-31T14:06:56.897Z,13.29
2023-03-31T14:09:33.138Z,13.34
2023-03-31T14:12:00.734Z,13.27
2023-03-31T14:14:43.350Z,13.23
2023-03-31T14:17:18.225Z,13.29
2023-03-31T14:20:23.762Z,13.31
2023-03-31T14:23:25.992Z,13.22
2023-03-31T14:26:04.757Z,13.41
2023-03-31T14:28:46.789Z,13.39
2023-03-31T14:31:25.722Z,13.31
2023-03-31T14:34:20.582Z,13.35
2023-03-31T14:36:57.731Z,13.31
2023-03-31T14:39:34.964Z,13.30
2023-03-31T14:42:05.813Z,13.25
2023-03-31T14:44:34.969Z,13.17
2023-03-31T14:47:01.734Z,13.18
2023-03-31T14:49:48.588Z,13.07
2023-03-31T14:52:18.719Z,13.12
2023-03-31T14:54:47.749Z,13.21
2023-03-31T14:57:24.363Z,13.13
2023-03-31T14:59:54.304Z,13.00
2023-03-31T15:02:32.582Z,12.86
2023-03-31T15:05:01.781Z,12.70
2023-03-31T15:07:28.576Z,12.56
2023-03-31T15:09:55.363Z,12.49
2023-03-31T15:12:23.478Z,12.22
2023-03-31T15:14:53.762Z,12.00
2023-03-31T15:17:33.170Z,11.83
2023-03-31T15:20:04.637Z,11.72
2023-03-31T15:22:31.558Z,11.63
2023-03-31T15:24:58.173Z,11.51
2023-03-31T15:27:42.664Z,11.51
2023-03-31T15:30:17.256Z,11.52
2023-03-31T15:32:44.628Z,11.53
2023-03-31T15:35:37.900Z,11.48
2023-03-31T15:38:06.478Z,11.42
2023-03-31T15:40:40.384Z,11.36
2023-03-31T15:43:25.810Z,11.30
2023-03-31T15:45:55.716Z,11.30
2023-03-31T15:48:37.136Z,11.33
2023-03-31T15:51:35.973Z,11.33
2023-03-31T15:54:03.552Z,11.38
2023-03-31T15:56:46.450Z,11.45
2023-03-31T15:59:25.136Z,11.41
2023-03-31T16:01:55.028Z,11.47
2023-03-31T16:04:22.276Z,11.49
2023-03-31T16:06:54.428Z,11.43
2023-03-31T16:09:31.195Z,11.42
2023-03-31T16:12:02.252Z,11.47
2023-03-31T16:14:43.649Z,11.54
2023-03-31T16:17:19.847Z,11.56
2023-03-31T16:19:53.047Z,11.64
2023-03-31T16:22:24.437Z,11.71
2023-03-31T16:24:51.454Z,11.70
2023-03-31T16:27:18.594Z,11.68
2023-03-31T16:29:45.693Z,11.70
2023-03-31T16:32:15.384Z,11.68
2023-03-31T16:35:03.054Z,11.62
2023-03-31T16:37:29.866Z,11.60
2023-03-31T16:39:57.436Z,11.63
2023-03-31T16:42:24.121Z,11.59
2023-03-31T16:45:09.370Z,11.60
2023-03-31T16:47:37.221Z,11.63
2023-03-31T16:50:07.193Z,11.63
2023-03-31T16:52:34.047Z,11.60
2023-03-31T16:55:01.355Z,11.63
2023-03-31T16:57:28.109Z,11.60
2023-03-31T16:59:56.664Z,11.59
2023-03-31T17:02:24.259Z,11.61
2023-03-31T17:04:54.164Z,11.55
2023-03-31T17:07:21.882Z,11.54
2023-03-31T17:09:48.353Z,11.49
2023-03-31T17:12:14.766Z,11.47
2023-03-31T17:14:41.178Z,11.43
2023-03-31T17:17:07.608Z,11.42
2023-03-31T17:19:34.126Z,11.39
2023-03-31T17:22:03.355Z,11.38
2023-03-31T17:24:29.808Z,11.38
2023-03-31T17:26:56.611Z,11.35
2023-03-31T17:29:23.117Z,11.33
2023-03-31T17:31:49.638Z,11.38
2023-03-31T17:34:17.267Z,11.32
2023-03-31T17:36:44.690Z,11.27
2023-03-31T17:39:11.162Z,11.27
2023-03-31T17:41:37.754Z,11.24
2023-03-31T17:44:04.786Z,11.19
2023-03-31T17:46:31.568Z,11.14
2023-03-31T17:48:58.359Z,11.12
2023-03-31T17:51:24.970Z,11.10
2023-03-31T17:53:51.484Z,11.08
2023-03-31T17:56:18.037Z,11.10
2023-03-31T17:58:45.258Z,11.07
2023-03-31T18:01:12.604Z,11.09
2023-03-31T18:03:39.250Z,11.07
2023-03-31T18:06:11.769Z,11.03
2023-03-31T18:08:39.216Z,11.05
2023-03-31T18:11:08.351Z,11.06
2023-03-31T18:13:38.867Z,11.04
2023-03-31T18:16:09.489Z,11.03
2023-03-31T18:18:37.034Z,11.03
2023-03-31T18:21:08.273Z,11.01
2023-03-31T18:23:35.115Z,10.97
2023-03-31T18:26:02.229Z,10.98
2023-03-31T18:28:28.748Z,10.95
2023-03-31T18:30:55.243Z,10.89
2023-03-31T18:33:22.001Z,10.87
2023-03-31T18:35:48.703Z,10.84
2023-03-31T18:38:17.560Z,10.82
2023-03-31T18:40:49.615Z,10.85
2023-03-31T18:43:18.283Z,10.87
2023-03-31T18:45:49.362Z,10.89
2023-03-31T18:48:17.906Z,10.89
2023-03-31T18:50:45.335Z,10.90
2023-03-31T18:53:13.218Z,10.89
2023-03-31T18:55:39.732Z,10.89
2023-03-31T18:58:06.156Z,10.88
2023-03-31T19:00:32.665Z,10.91
2023-03-31T19:02:59.455Z,10.89
2023-03-31T19:05:25.991Z,10.88
2023-03-31T19:07:52.492Z,10.95
2023-03-31T19:10:19.000Z,10.92
2023-03-31T19:12:48.883Z,10.88
2023-03-31T19:15:16.257Z,10.87
2023-03-31T19:17:42.780Z,10.85
2023-03-31T19:20:16.295Z,10.88
2023-03-31T19:22:45.470Z,10.85
2023-03-31T19:25:13.202Z,10.91
2023-03-31T19:27:40.242Z,10.91
2023-03-31T19:30:07.817Z,10.84
2023-03-31T19:32:34.221Z,10.80
2023-03-31T19:35:00.655Z,10.76
2023-03-31T19:37:27.272Z,10.76
2023-03-31T19:39:53.706Z,10.78
2023-03-31T19:42:20.303Z,10.74
2023-03-31T19:44:46.826Z,10.71
2023-03-31T19:47:13.517Z,10.69
2023-03-31T19:49:39.967Z,10.67
2023-03-31T19:52:06.435Z,10.69
2023-03-31T19:54:33.672Z,10.67
2023-03-31T19:57:00.377Z,10.65
2023-03-31T19:59:27.070Z,10.62
2023-03-31T20:01:53.709Z,10.59
2023-03-31T20:04:20.943Z,10.54
2023-03-31T20:06:49.566Z,10.51
2023-03-31T20:09:17.285Z,10.47
2023-03-31T20:11:45.200Z,10.45
2023-03-31T20:14:12.007Z,10.42
2023-03-31T20:16:38.600Z,10.40
2023-03-31T20:19:06.204Z,10.37
2023-03-31T20:21:39.019Z,10.37
2023-03-31T20:24:12.426Z,10.34
2023-03-31T20:26:41.559Z,10.34
2023-03-31T20:29:08.734Z,10.34
2023-03-31T20:31:37.405Z,10.34
2023-03-31T20:34:06.244Z,10.34
2023-03-31T20:36:33.484Z,10.35
2023-03-31T20:39:02.906Z,10.35
2023-03-31T20:41:30.927Z,10.33
2023-03-31T20:43:58.560Z,10.32
2023-03-31T20:46:25.766Z,10.30
2023-03-31T20:48:58.025Z,10.30
2023-03-31T20:51:30.863Z,10.30
2023-03-31T20:53:58.975Z,10.27
2023-03-31T20:56:45.492Z,10.26
2023-03-31T20:59:14.796Z,10.26
2023-03-31T21:01:42.497Z,10.22
2023-03-31T21:04:11.070Z,10.22
2023-03-31T21:06:40.932Z,10.16
2023-03-31T21:09:07.965Z,10.15
2023-03-31T21:11:34.684Z,10.13
2023-03-31T21:14:01.568Z,10.11
2023-03-31T21:16:28.119Z,10.10
2023-03-31T21:18:59.754Z,10.10
2023-03-31T21:21:27.583Z,10.11
2023-03-31T21:23:54.459Z,10.12
2023-03-31T21:26:22.691Z,10.15
2023-03-31T21:28:54.267Z,10.15
2023-03-31T21:31:24.018Z,10.15
2023-03-31T21:33:52.163Z,10.18
2023-03-31T21:36:22.343Z,10.19
2023-03-31T21:38:49.292Z,10.19
2023-03-31T21:41:18.997Z,10.18
2023-03-31T21:43:46.621Z,10.21
2023-03-31T21:46:17.408Z,10.18
2023-03-31T21:48:44.608Z,10.20
2023-03-31T21:51:11.820Z,10.14
2023-03-31T21:53:38.378Z,10.12
2023-03-31T21:56:05.073Z,10.10
2023-03-31T21:58:31.562Z,10.08
2023-03-31T22:01:01.187Z,10.07
2023-03-31T22:03:28.990Z,10.07
2023-03-31T22:05:57.033Z,10.08
2023-03-31T22:08:24.434Z,10.07
2023-03-31T22:10:52.019Z,10.05
2023-03-31T22:13:19.162Z,10.06
2023-03-31T22:15:45.728Z,10.06
2023-03-31T22:18:12.327Z,10.04
2023-03-31T22:20:39.198Z,10.03
2023-03-31T22:23:06.279Z,10.00
2023-03-31T22:25:33.148Z,10.00
2023-03-31T22:28:00.433Z,9.98
2023-03-31T22:30:27.082Z,9.97
2023-03-31T22:32:54.903Z,9.98
2023-03-31T22:35:21.854Z,9.98
2023-03-31T22:37:48.355Z,9.95
2023-03-31T22:40:14.925Z,9.91
2023-03-31T22:42:41.935Z,9.89
2023-03-31T22:45:09.278Z,9.87
2023-03-31T22:47:36.119Z,9.83
2023-03-31T22:50:02.727Z,9.83
2023-03-31T22:52:29.229Z,9.85
2023-03-31T22:54:56.027Z,9.85
2023-03-31T22:57:22.741Z,9.86
2023-03-31T22:59:49.203Z,9.84
2023-03-31T23:02:15.742Z,9.83
2023-03-31T23:04:42.187Z,9.85
2023-03-31T23:07:08.620Z,9.81
2023-03-31T23:09:35.474Z,9.82
2023-03-31T23:12:01.901Z,9.81
2023-03-31T23:14:28.479Z,9.82
2023-03-31T23:16:55.886Z,9.83
2023-03-31T23:19:22.542Z,9.83
2023-03-31T23:21:49.532Z,9.81
2023-03-31T23:24:19.613Z,9.81
2023-03-31T23:26:46.498Z,9.79
2023-03-31T23:29:13.199Z,9.79
2023-03-31T23:31:39.799Z,9.78
2023-03-31T23:34:07.219Z,9.77
2023-03-31T23:36:33.628Z,9.75
2023-03-31T23:39:00.060Z,9.74
2023-03-31T23:41:27.068Z,9.76
2023-03-31T23:43:54.577Z,9.74
2023-03-31T23:46:21.632Z,9.76
2023-03-31T23:48:48.604Z,9.76
2023-03-31T23:51:15.354Z,9.74
2023-03-31T23:53:41.822Z,9.75
2023-03-31T23:56:11.610Z,9.75
2023-03-31T23:58:39.161Z,9.75
